sensor_id;sensor_type;location;lat;lon;timestamp;P1;durP1;ratioP1;P2;durP2;ratioP2
10667;SDS011;5382;42.136;24.796;2023-09-07T00:01:12;10.77;;;9.85;;
10667;SDS011;5382;42.136;24.796;2023-09-07T00:03:40;12.52;;;11.23;;
10667;SDS011;5382;42.136;24.796;2023-09-07T00:06:08;14.18;;;11.18;;
10667;SDS011;5382;42.136;24.796;2023-09-07T00:08:35;10.70;;;9.70;;
10667;SDS011;5382;42.136;24.796;2023-09-07T00:11:04;11.77;;;9.45;;
10667;SDS011;5382;42.136;24.796;2023-09-07T00:13:32;12.38;;;9.82;;
10667;SDS011;5382;42.136;24.796;2023-09-07T00:15:59;11.02;;;9.73;;
10667;SDS011;5382;42.136;24.796;2023-09-07T00:18:29;11.60;;;9.88;;
10667;SDS011;5382;42.136;24.796;2023-09-07T00:20:57;10.10;;;9.20;;
10667;SDS011;5382;42.136;24.796;2023-09-07T00:23:26;12.02;;;9.82;;
10667;SDS011;5382;42.136;24.796;2023-09-07T00:25:53;12.73;;;9.02;;
10667;SDS011;5382;42.136;24.796;2023-09-07T00:28:20;10.30;;;8.48;;
10667;SDS011;5382;42.136;24.796;2023-09-07T00:30:47;10.07;;;8.82;;
10667;SDS011;5382;42.136;24.796;2023-09-07T00:33:15;9.98;;;9.00;;
10667;SDS011;5382;42.136;24.796;2023-09-07T00:35:50;9.57;;;8.10;;
10667;SDS011;5382;42.136;24.796;2023-09-07T00:38:19;15.55;;;9.10;;
10667;SDS011;5382;42.136;24.796;2023-09-07T00:40:47;9.23;;;8.38;;
10667;SDS011;5382;42.136;24.796;2023-09-07T00:43:14;8.13;;;7.32;;
10667;SDS011;5382;42.136;24.796;2023-09-07T00:45:42;9.30;;;8.25;;
10667;SDS011;5382;42.136;24.796;2023-09-07T00:48:11;9.60;;;7.60;;
10667;SDS011;5382;42.136;24.796;2023-09-07T00:50:39;13.32;;;7.35;;
10667;SDS011;5382;42.136;24.796;2023-09-07T00:53:08;7.88;;;6.40;;
10667;SDS011;5382;42.136;24.796;2023-09-07T00:55:37;6.50;;;5.70;;
10667;SDS011;5382;42.136;24.796;2023-09-07T00:58:05;7.63;;;6.18;;
10667;SDS011;5382;42.136;24.796;2023-09-07T01:00:34;7.13;;;6.43;;
10667;SDS011;5382;42.136;24.796;2023-09-07T01:03:01;7.43;;;6.15;;
10667;SDS011;5382;42.136;24.796;2023-09-07T01:05:31;6.63;;;5.85;;
10667;SDS011;5382;42.136;24.796;2023-09-07T01:08:06;7.30;;;5.25;;
10667;SDS011;5382;42.136;24.796;2023-09-07T01:10:44;8.40;;;5.68;;
10667;SDS011;5382;42.136;24.796;2023-09-07T01:13:11;5.82;;;5.05;;
10667;SDS011;5382;42.136;24.796;2023-09-07T01:15:52;7.68;;;5.00;;
10667;SDS011;5382;42.136;24.796;2023-09-07T01:18:20;5.28;;;4.78;;
10667;SDS011;5382;42.136;24.796;2023-09-07T01:20:52;6.10;;;5.07;;
10667;SDS011;5382;42.136;24.796;2023-09-07T01:23:26;7.88;;;5.15;;
10667;SDS011;5382;42.136;24.796;2023-09-07T01:25:54;8.82;;;5.22;;
10667;SDS011;5382;42.136;24.796;2023-09-07T01:28:22;5.60;;;4.68;;
10667;SDS011;5382;42.136;24.796;2023-09-07T01:30:51;7.50;;;5.32;;
10667;SDS011;5382;42.136;24.796;2023-09-07T01:33:19;5.72;;;4.93;;
10667;SDS011;5382;42.136;24.796;2023-09-07T01:35:46;6.90;;;4.53;;
10667;SDS011;5382;42.136;24.796;2023-09-07T01:38:13;5.45;;;4.93;;
10667;SDS011;5382;42.136;24.796;2023-09-07T01:40:43;7.05;;;5.05;;
10667;SDS011;5382;42.136;24.796;2023-09-07T01:43:11;5.00;;;4.32;;
10667;SDS011;5382;42.136;24.796;2023-09-07T01:45:39;6.70;;;4.82;;
10667;SDS011;5382;42.136;24.796;2023-09-07T01:48:07;9.88;;;5.57;;
10667;SDS011;5382;42.136;24.796;2023-09-07T01:50:35;10.18;;;5.18;;
10667;SDS011;5382;42.136;24.796;2023-09-07T01:53:02;6.85;;;4.78;;
10667;SDS011;5382;42.136;24.796;2023-09-07T01:55:30;5.80;;;4.97;;
10667;SDS011;5382;42.136;24.796;2023-09-07T01:57:59;6.60;;;5.15;;
10667;SDS011;5382;42.136;24.796;2023-09-07T02:00:26;5.95;;;4.82;;
10667;SDS011;5382;42.136;24.796;2023-09-07T02:02:54;5.55;;;4.75;;
10667;SDS011;5382;42.136;24.796;2023-09-07T02:05:23;5.55;;;4.68;;
10667;SDS011;5382;42.136;24.796;2023-09-07T02:07:52;7.28;;;4.95;;
10667;SDS011;5382;42.136;24.796;2023-09-07T02:10:19;7.20;;;4.70;;
10667;SDS011;5382;42.136;24.796;2023-09-07T02:12:46;6.75;;;4.82;;
10667;SDS011;5382;42.136;24.796;2023-09-07T02:15:15;5.38;;;4.78;;
10667;SDS011;5382;42.136;24.796;2023-09-07T02:17:42;7.72;;;5.30;;
10667;SDS011;5382;42.136;24.796;2023-09-07T02:20:10;7.20;;;5.72;;
10667;SDS011;5382;42.136;24.796;2023-09-07T02:22:38;7.47;;;5.80;;
10667;SDS011;5382;42.136;24.796;2023-09-07T02:25:05;8.90;;;5.60;;
10667;SDS011;5382;42.136;24.796;2023-09-07T02:27:33;11.50;;;5.65;;
10667;SDS011;5382;42.136;24.796;2023-09-07T02:30:01;11.75;;;5.55;;
10667;SDS011;5382;42.136;24.796;2023-09-07T02:32:31;10.07;;;6.47;;
10667;SDS011;5382;42.136;24.796;2023-09-07T02:34:59;9.68;;;5.80;;
10667;SDS011;5382;42.136;24.796;2023-09-07T02:37:27;9.25;;;5.72;;
10667;SDS011;5382;42.136;24.796;2023-09-07T02:39:55;8.95;;;6.22;;
10667;SDS011;5382;42.136;24.796;2023-09-07T02:42:22;9.15;;;6.18;;
10667;SDS011;5382;42.136;24.796;2023-09-07T02:44:50;7.38;;;6.15;;
10667;SDS011;5382;42.136;24.796;2023-09-07T02:47:35;10.95;;;5.70;;
10667;SDS011;5382;42.136;24.796;2023-09-07T02:53:39;11.27;;;6.75;;
10667;SDS011;5382;42.136;24.796;2023-09-07T02:56:06;10.27;;;5.78;;
10667;SDS011;5382;42.136;24.796;2023-09-07T02:58:43;6.82;;;6.03;;
10667;SDS011;5382;42.136;24.796;2023-09-07T03:01:10;15.13;;;9.52;;
10667;SDS011;5382;42.136;24.796;2023-09-07T03:03:40;9.48;;;7.65;;
10667;SDS011;5382;42.136;24.796;2023-09-07T03:06:08;12.90;;;8.52;;
10667;SDS011;5382;42.136;24.796;2023-09-07T03:08:35;10.88;;;9.10;;
10667;SDS011;5382;42.136;24.796;2023-09-07T03:11:03;14.85;;;9.95;;
10667;SDS011;5382;42.136;24.796;2023-09-07T03:13:35;13.00;;;9.95;;
10667;SDS011;5382;42.136;24.796;2023-09-07T03:16:03;13.57;;;10.02;;
10667;SDS011;5382;42.136;24.796;2023-09-07T03:18:33;11.80;;;8.65;;
10667;SDS011;5382;42.136;24.796;2023-09-07T03:21:02;15.63;;;9.98;;
10667;SDS011;5382;42.136;24.796;2023-09-07T03:26:35;12.25;;;10.23;;
10667;SDS011;5382;42.136;24.796;2023-09-07T03:29:03;15.07;;;13.60;;
10667;SDS011;5382;42.136;24.796;2023-09-07T03:31:32;16.45;;;14.05;;
10667;SDS011;5382;42.136;24.796;2023-09-07T03:34:01;19.65;;;16.33;;
10667;SDS011;5382;42.136;24.796;2023-09-07T03:36:30;18.88;;;16.70;;
10667;SDS011;5382;42.136;24.796;2023-09-07T03:39:01;19.73;;;17.70;;
10667;SDS011;5382;42.136;24.796;2023-09-07T03:41:28;19.70;;;17.80;;
10667;SDS011;5382;42.136;24.796;2023-09-07T03:43:56;22.23;;;19.63;;
10667;SDS011;5382;42.136;24.796;2023-09-07T03:46:24;20.05;;;18.08;;
10667;SDS011;5382;42.136;24.796;2023-09-07T03:48:52;20.92;;;18.02;;
10667;SDS011;5382;42.136;24.796;2023-09-07T03:51:19;20.08;;;17.95;;
10667;SDS011;5382;42.136;24.796;2023-09-07T03:53:48;20.50;;;18.40;;
10667;SDS011;5382;42.136;24.796;2023-09-07T03:56:16;20.83;;;18.83;;
10667;SDS011;5382;42.136;24.796;2023-09-07T03:58:44;23.50;;;19.75;;
10667;SDS011;5382;42.136;24.796;2023-09-07T04:01:12;27.23;;;18.90;;
10667;SDS011;5382;42.136;24.796;2023-09-07T04:03:39;26.45;;;18.02;;
10667;SDS011;5382;42.136;24.796;2023-09-07T04:06:07;22.65;;;18.25;;
10667;SDS011;5382;42.136;24.796;2023-09-07T04:08:35;20.63;;;17.42;;
10667;SDS011;5382;42.136;24.796;2023-09-07T04:11:04;19.92;;;17.27;;
10667;SDS011;5382;42.136;24.796;2023-09-07T04:13:32;18.02;;;16.17;;
10667;SDS011;5382;42.136;24.796;2023-09-07T04:16:01;16.77;;;15.15;;
10667;SDS011;5382;42.136;24.796;2023-09-07T04:18:29;18.98;;;16.40;;
10667;SDS011;5382;42.136;24.796;2023-09-07T04:21:04;22.02;;;18.38;;
10667;SDS011;5382;42.136;24.796;2023-09-07T04:23:32;25.33;;;18.27;;
10667;SDS011;5382;42.136;24.796;2023-09-07T04:26:06;23.27;;;18.73;;
10667;SDS011;5382;42.136;24.796;2023-09-07T04:28:37;22.92;;;18.45;;
10667;SDS011;5382;42.136;24.796;2023-09-07T04:31:06;25.98;;;18.92;;
10667;SDS011;5382;42.136;24.796;2023-09-07T04:33:33;19.75;;;17.80;;
10667;SDS011;5382;42.136;24.796;2023-09-07T04:36:08;20.25;;;18.15;;
10667;SDS011;5382;42.136;24.796;2023-09-07T04:38:36;23.13;;;18.08;;
10667;SDS011;5382;42.136;24.796;2023-09-07T04:41:08;22.08;;;19.73;;
10667;SDS011;5382;42.136;24.796;2023-09-07T04:43:36;21.20;;;18.25;;
10667;SDS011;5382;42.136;24.796;2023-09-07T04:46:05;19.83;;;17.83;;
10667;SDS011;5382;42.136;24.796;2023-09-07T04:48:33;21.42;;;19.27;;
10667;SDS011;5382;42.136;24.796;2023-09-07T04:51:01;21.02;;;17.90;;
10667;SDS011;5382;42.136;24.796;2023-09-07T04:53:30;18.75;;;16.83;;
10667;SDS011;5382;42.136;24.796;2023-09-07T04:56:05;21.58;;;19.00;;
10667;SDS011;5382;42.136;24.796;2023-09-07T04:58:36;18.58;;;16.13;;
10667;SDS011;5382;42.136;24.796;2023-09-07T05:01:03;20.45;;;15.75;;
10667;SDS011;5382;42.136;24.796;2023-09-07T05:03:30;19.80;;;16.63;;
10667;SDS011;5382;42.136;24.796;2023-09-07T05:05:59;18.67;;;16.70;;
10667;SDS011;5382;42.136;24.796;2023-09-07T05:08:28;19.50;;;16.08;;
10667;SDS011;5382;42.136;24.796;2023-09-07T05:10:57;18.00;;;16.10;;
10667;SDS011;5382;42.136;24.796;2023-09-07T05:13:27;23.38;;;16.80;;
10667;SDS011;5382;42.136;24.796;2023-09-07T05:15:55;19.88;;;15.95;;
10667;SDS011;5382;42.136;24.796;2023-09-07T05:18:24;19.83;;;16.05;;
10667;SDS011;5382;42.136;24.796;2023-09-07T05:20:51;21.23;;;16.00;;
10667;SDS011;5382;42.136;24.796;2023-09-07T05:23:19;22.02;;;16.83;;
10667;SDS011;5382;42.136;24.796;2023-09-07T05:25:46;18.08;;;16.13;;
10667;SDS011;5382;42.136;24.796;2023-09-07T05:28:15;18.92;;;15.93;;
10667;SDS011;5382;42.136;24.796;2023-09-07T05:30:45;22.58;;;16.60;;
10667;SDS011;5382;42.136;24.796;2023-09-07T05:33:13;24.52;;;15.80;;
10667;SDS011;5382;42.136;24.796;2023-09-07T05:35:43;20.08;;;16.75;;
10667;SDS011;5382;42.136;24.796;2023-09-07T05:38:10;23.08;;;16.42;;
10667;SDS011;5382;42.136;24.796;2023-09-07T05:40:38;21.95;;;16.42;;
10667;SDS011;5382;42.136;24.796;2023-09-07T05:43:07;22.35;;;17.10;;
10667;SDS011;5382;42.136;24.796;2023-09-07T05:45:35;19.92;;;16.50;;
10667;SDS011;5382;42.136;24.796;2023-09-07T05:48:07;19.98;;;15.48;;
10667;SDS011;5382;42.136;24.796;2023-09-07T05:50:35;18.15;;;16.30;;
10667;SDS011;5382;42.136;24.796;2023-09-07T05:53:03;18.58;;;16.67;;
10667;SDS011;5382;42.136;24.796;2023-09-07T05:55:31;21.88;;;15.93;;
10667;SDS011;5382;42.136;24.796;2023-09-07T05:57:58;18.58;;;16.67;;
10667;SDS011;5382;42.136;24.796;2023-09-07T06:00:25;19.23;;;15.13;;
10667;SDS011;5382;42.136;24.796;2023-09-07T06:02:53;19.40;;;14.00;;
10667;SDS011;5382;42.136;24.796;2023-09-07T06:05:25;24.75;;;16.42;;
10667;SDS011;5382;42.136;24.796;2023-09-07T06:07:56;18.30;;;15.23;;
10667;SDS011;5382;42.136;24.796;2023-09-07T06:10:24;24.55;;;14.77;;
10667;SDS011;5382;42.136;24.796;2023-09-07T06:12:55;15.80;;;14.23;;
10667;SDS011;5382;42.136;24.796;2023-09-07T06:15:23;18.13;;;14.23;;
10667;SDS011;5382;42.136;24.796;2023-09-07T06:17:50;17.98;;;13.90;;
10667;SDS011;5382;42.136;24.796;2023-09-07T06:20:16;17.95;;;12.88;;
10667;SDS011;5382;42.136;24.796;2023-09-07T06:22:46;14.57;;;11.93;;
10667;SDS011;5382;42.136;24.796;2023-09-07T06:25:14;15.75;;;12.25;;
10667;SDS011;5382;42.136;24.796;2023-09-07T06:27:42;19.45;;;14.50;;
10667;SDS011;5382;42.136;24.796;2023-09-07T06:30:10;18.75;;;13.15;;
10667;SDS011;5382;42.136;24.796;2023-09-07T06:32:37;18.92;;;12.75;;
10667;SDS011;5382;42.136;24.796;2023-09-07T06:35:05;14.02;;;11.10;;
10667;SDS011;5382;42.136;24.796;2023-09-07T06:37:33;15.93;;;10.43;;
10667;SDS011;5382;42.136;24.796;2023-09-07T06:40:02;15.88;;;11.13;;
10667;SDS011;5382;42.136;24.796;2023-09-07T06:42:30;13.60;;;10.52;;
10667;SDS011;5382;42.136;24.796;2023-09-07T06:44:57;10.63;;;8.95;;
10667;SDS011;5382;42.136;24.796;2023-09-07T06:47:24;12.90;;;10.20;;
10667;SDS011;5382;42.136;24.796;2023-09-07T06:49:52;12.10;;;10.45;;
10667;SDS011;5382;42.136;24.796;2023-09-07T06:52:19;17.08;;;11.50;;
10667;SDS011;5382;42.136;24.796;2023-09-07T06:54:46;13.43;;;10.80;;
10667;SDS011;5382;42.136;24.796;2023-09-07T06:57:15;12.35;;;10.98;;
10667;SDS011;5382;42.136;24.796;2023-09-07T06:59:42;14.98;;;12.70;;
10667;SDS011;5382;42.136;24.796;2023-09-07T07:02:10;18.63;;;12.95;;
10667;SDS011;5382;42.136;24.796;2023-09-07T07:04:37;17.15;;;13.35;;
10667;SDS011;5382;42.136;24.796;2023-09-07T07:07:03;20.25;;;13.65;;
10667;SDS011;5382;42.136;24.796;2023-09-07T07:09:32;18.20;;;12.60;;
10667;SDS011;5382;42.136;24.796;2023-09-07T07:12:00;17.60;;;14.43;;
10667;SDS011;5382;42.136;24.796;2023-09-07T07:14:29;20.17;;;13.93;;
10667;SDS011;5382;42.136;24.796;2023-09-07T07:16:56;16.52;;;12.05;;
10667;SDS011;5382;42.136;24.796;2023-09-07T07:19:23;16.88;;;11.07;;
10667;SDS011;5382;42.136;24.796;2023-09-07T07:21:50;16.65;;;12.40;;
10667;SDS011;5382;42.136;24.796;2023-09-07T07:24:18;16.70;;;12.18;;
10667;SDS011;5382;42.136;24.796;2023-09-07T07:26:59;20.60;;;13.25;;
10667;SDS011;5382;42.136;24.796;2023-09-07T07:29:31;15.60;;;10.65;;
10667;SDS011;5382;42.136;24.796;2023-09-07T07:31:58;13.73;;;11.55;;
10667;SDS011;5382;42.136;24.796;2023-09-07T07:34:24;13.18;;;11.75;;
10667;SDS011;5382;42.136;24.796;2023-09-07T07:36:51;15.98;;;12.07;;
10667;SDS011;5382;42.136;24.796;2023-09-07T07:39:18;14.60;;;11.07;;
10667;SDS011;5382;42.136;24.796;2023-09-07T07:41:47;18.92;;;11.20;;
10667;SDS011;5382;42.136;24.796;2023-09-07T07:44:15;13.02;;;11.15;;
10667;SDS011;5382;42.136;24.796;2023-09-07T07:46:44;15.73;;;10.93;;
10667;SDS011;5382;42.136;24.796;2023-09-07T07:49:11;13.07;;;10.35;;
10667;SDS011;5382;42.136;24.796;2023-09-07T07:51:39;12.63;;;10.50;;
10667;SDS011;5382;42.136;24.796;2023-09-07T07:54:06;11.52;;;10.43;;
10667;SDS011;5382;42.136;24.796;2023-09-07T07:56:33;10.95;;;9.30;;
10667;SDS011;5382;42.136;24.796;2023-09-07T07:59:00;10.13;;;9.13;;
10667;SDS011;5382;42.136;24.796;2023-09-07T08:01:28;16.25;;;9.50;;
10667;SDS011;5382;42.136;24.796;2023-09-07T08:03:57;11.07;;;8.98;;
10667;SDS011;5382;42.136;24.796;2023-09-07T08:06:25;14.50;;;11.02;;
10667;SDS011;5382;42.136;24.796;2023-09-07T08:08:54;10.85;;;9.00;;
10667;SDS011;5382;42.136;24.796;2023-09-07T08:11:25;10.27;;;8.32;;
10667;SDS011;5382;42.136;24.796;2023-09-07T08:13:58;10.70;;;8.32;;
10667;SDS011;5382;42.136;24.796;2023-09-07T08:16:25;9.07;;;7.93;;
10667;SDS011;5382;42.136;24.796;2023-09-07T08:18:52;12.15;;;7.75;;
10667;SDS011;5382;42.136;24.796;2023-09-07T08:21:20;11.07;;;8.10;;
10667;SDS011;5382;42.136;24.796;2023-09-07T08:23:49;10.57;;;8.65;;
10667;SDS011;5382;42.136;24.796;2023-09-07T08:26:15;9.23;;;7.65;;
10667;SDS011;5382;42.136;24.796;2023-09-07T08:28:42;8.63;;;7.53;;
10667;SDS011;5382;42.136;24.796;2023-09-07T08:31:11;9.10;;;7.10;;
10667;SDS011;5382;42.136;24.796;2023-09-07T08:33:39;10.02;;;7.93;;
10667;SDS011;5382;42.136;24.796;2023-09-07T08:36:10;10.55;;;7.20;;
10667;SDS011;5382;42.136;24.796;2023-09-07T08:38:45;9.82;;;6.78;;
10667;SDS011;5382;42.136;24.796;2023-09-07T08:41:11;11.65;;;6.38;;
10667;SDS011;5382;42.136;24.796;2023-09-07T08:43:43;8.23;;;6.18;;
10667;SDS011;5382;42.136;24.796;2023-09-07T08:46:13;11.73;;;6.88;;
10667;SDS011;5382;42.136;24.796;2023-09-07T08:48:45;7.68;;;6.68;;
10667;SDS011;5382;42.136;24.796;2023-09-07T08:51:14;9.20;;;6.60;;
10667;SDS011;5382;42.136;24.796;2023-09-07T08:53:41;8.85;;;6.50;;
10667;SDS011;5382;42.136;24.796;2023-09-07T08:56:13;8.18;;;6.40;;
10667;SDS011;5382;42.136;24.796;2023-09-07T08:58:40;7.43;;;6.00;;
10667;SDS011;5382;42.136;24.796;2023-09-07T09:01:07;7.32;;;5.80;;
10667;SDS011;5382;42.136;24.796;2023-09-07T09:03:41;10.95;;;7.25;;
10667;SDS011;5382;42.136;24.796;2023-09-07T09:06:44;10.20;;;5.53;;
10667;SDS011;5382;42.136;24.796;2023-09-07T09:09:21;7.28;;;5.55;;
10667;SDS011;5382;42.136;24.796;2023-09-07T09:11:51;11.13;;;6.28;;
10667;SDS011;5382;42.136;24.796;2023-09-07T09:14:18;8.15;;;5.15;;
10667;SDS011;5382;42.136;24.796;2023-09-07T09:16:49;7.03;;;5.85;;
10667;SDS011;5382;42.136;24.796;2023-09-07T09:19:16;10.00;;;6.63;;
10667;SDS011;5382;42.136;24.796;2023-09-07T09:21:45;10.23;;;7.47;;
10667;SDS011;5382;42.136;24.796;2023-09-07T09:24:13;11.48;;;8.15;;
10667;SDS011;5382;42.136;24.796;2023-09-07T09:26:43;11.55;;;7.97;;
10667;SDS011;5382;42.136;24.796;2023-09-07T09:29:13;11.00;;;7.38;;
10667;SDS011;5382;42.136;24.796;2023-09-07T09:31:41;10.57;;;7.95;;
10667;SDS011;5382;42.136;24.796;2023-09-07T09:34:09;10.18;;;8.25;;
10667;SDS011;5382;42.136;24.796;2023-09-07T09:36:37;12.55;;;8.63;;
10667;SDS011;5382;42.136;24.796;2023-09-07T09:39:06;11.60;;;8.85;;
10667;SDS011;5382;42.136;24.796;2023-09-07T09:41:34;12.15;;;8.13;;
10667;SDS011;5382;42.136;24.796;2023-09-07T09:44:05;12.90;;;8.55;;
10667;SDS011;5382;42.136;24.796;2023-09-07T09:46:36;9.10;;;8.20;;
10667;SDS011;5382;42.136;24.796;2023-09-07T09:49:04;9.13;;;7.30;;
10667;SDS011;5382;42.136;24.796;2023-09-07T09:51:36;9.98;;;7.55;;
10667;SDS011;5382;42.136;24.796;2023-09-07T09:54:07;10.82;;;7.20;;
10667;SDS011;5382;42.136;24.796;2023-09-07T09:56:38;9.35;;;6.40;;
10667;SDS011;5382;42.136;24.796;2023-09-07T09:59:13;6.97;;;6.25;;
10667;SDS011;5382;42.136;24.796;2023-09-07T10:01:44;7.70;;;6.82;;
10667;SDS011;5382;42.136;24.796;2023-09-07T10:04:12;8.40;;;6.28;;
10667;SDS011;5382;42.136;24.796;2023-09-07T10:06:49;9.07;;;6.40;;
10667;SDS011;5382;42.136;24.796;2023-09-07T10:09:20;8.25;;;6.15;;
10667;SDS011;5382;42.136;24.796;2023-09-07T10:11:52;10.20;;;7.00;;
10667;SDS011;5382;42.136;24.796;2023-09-07T10:14:20;12.77;;;7.03;;
10667;SDS011;5382;42.136;24.796;2023-09-07T10:17:04;10.32;;;7.15;;
10667;SDS011;5382;42.136;24.796;2023-09-07T10:19:46;9.45;;;7.03;;
10667;SDS011;5382;42.136;24.796;2023-09-07T10:22:32;10.88;;;6.10;;
10667;SDS011;5382;42.136;24.796;2023-09-07T10:28:23;12.82;;;6.53;;
10667;SDS011;5382;42.136;24.796;2023-09-07T10:31:06;12.07;;;6.60;;
10667;SDS011;5382;42.136;24.796;2023-09-07T10:34:07;8.68;;;6.70;;
10667;SDS011;5382;42.136;24.796;2023-09-07T10:50:12;8.30;;;6.28;;
10667;SDS011;5382;42.136;24.796;2023-09-07T10:52:46;8.68;;;5.63;;
10667;SDS011;5382;42.136;24.796;2023-09-07T10:55:14;9.10;;;6.38;;
10667;SDS011;5382;42.136;24.796;2023-09-07T10:57:43;6.97;;;5.65;;
10667;SDS011;5382;42.136;24.796;2023-09-07T11:00:12;6.47;;;5.38;;
10667;SDS011;5382;42.136;24.796;2023-09-07T11:02:41;13.20;;;5.40;;
10667;SDS011;5382;42.136;24.796;2023-09-07T11:05:25;6.35;;;5.28;;
10667;SDS011;5382;42.136;24.796;2023-09-07T11:08:07;13.32;;;5.72;;
10667;SDS011;5382;42.136;24.796;2023-09-07T11:18:13;10.73;;;5.57;;
10667;SDS011;5382;42.136;24.796;2023-09-07T11:20:47;6.90;;;4.95;;
10667;SDS011;5382;42.136;24.796;2023-09-07T11:23:15;10.15;;;5.30;;
10667;SDS011;5382;42.136;24.796;2023-09-07T11:25:43;9.43;;;5.18;;
10667;SDS011;5382;42.136;24.796;2023-09-07T11:28:19;7.57;;;5.55;;
10667;SDS011;5382;42.136;24.796;2023-09-07T11:36:10;7.50;;;4.70;;
10667;SDS011;5382;42.136;24.796;2023-09-07T11:38:58;8.13;;;4.75;;
10667;SDS011;5382;42.136;24.796;2023-09-07T11:41:32;5.95;;;4.43;;
10667;SDS011;5382;42.136;24.796;2023-09-07T11:44:23;9.93;;;5.20;;
10667;SDS011;5382;42.136;24.796;2023-09-07T11:47:46;9.52;;;4.72;;
10667;SDS011;5382;42.136;24.796;2023-09-07T11:50:27;5.28;;;4.63;;
10667;SDS011;5382;42.136;24.796;2023-09-07T11:52:56;7.15;;;4.65;;
10667;SDS011;5382;42.136;24.796;2023-09-07T11:55:23;7.18;;;4.80;;
10667;SDS011;5382;42.136;24.796;2023-09-07T11:57:53;6.88;;;5.57;;
10667;SDS011;5382;42.136;24.796;2023-09-07T12:00:20;5.68;;;4.82;;
10667;SDS011;5382;42.136;24.796;2023-09-07T12:02:49;5.75;;;4.32;;
10667;SDS011;5382;42.136;24.796;2023-09-07T12:05:16;5.63;;;4.40;;
10667;SDS011;5382;42.136;24.796;2023-09-07T12:07:44;6.45;;;4.38;;
10667;SDS011;5382;42.136;24.796;2023-09-07T12:10:14;4.95;;;4.45;;
10667;SDS011;5382;42.136;24.796;2023-09-07T12:50:34;8.75;;;4.93;;
10667;SDS011;5382;42.136;24.796;2023-09-07T12:53:04;9.40;;;4.85;;
10667;SDS011;5382;42.136;24.796;2023-09-07T12:55:31;7.05;;;4.60;;
10667;SDS011;5382;42.136;24.796;2023-09-07T12:57:59;10.05;;;4.82;;
10667;SDS011;5382;42.136;24.796;2023-09-07T13:00:28;9.05;;;4.63;;
10667;SDS011;5382;42.136;24.796;2023-09-07T13:02:55;8.82;;;4.88;;
10667;SDS011;5382;42.136;24.796;2023-09-07T13:05:33;7.63;;;4.72;;
10667;SDS011;5382;42.136;24.796;2023-09-07T13:08:04;7.38;;;4.70;;
10667;SDS011;5382;42.136;24.796;2023-09-07T13:10:31;7.05;;;4.28;;
10667;SDS011;5382;42.136;24.796;2023-09-07T13:12:59;5.07;;;4.32;;
10667;SDS011;5382;42.136;24.796;2023-09-07T13:15:26;8.73;;;5.20;;
10667;SDS011;5382;42.136;24.796;2023-09-07T13:17:53;6.47;;;4.80;;
10667;SDS011;5382;42.136;24.796;2023-09-07T13:20:28;7.57;;;4.93;;
10667;SDS011;5382;42.136;24.796;2023-09-07T13:23:25;7.78;;;4.50;;
10667;SDS011;5382;42.136;24.796;2023-09-07T13:25:53;9.57;;;4.35;;
10667;SDS011;5382;42.136;24.796;2023-09-07T13:28:20;6.57;;;4.55;;
10667;SDS011;5382;42.136;24.796;2023-09-07T13:30:48;7.10;;;4.80;;
10667;SDS011;5382;42.136;24.796;2023-09-07T13:33:16;8.65;;;4.28;;
10667;SDS011;5382;42.136;24.796;2023-09-07T13:35:43;5.88;;;4.28;;
10667;SDS011;5382;42.136;24.796;2023-09-07T13:38:10;5.47;;;4.40;;
10667;SDS011;5382;42.136;24.796;2023-09-07T13:40:39;6.72;;;4.45;;
10667;SDS011;5382;42.136;24.796;2023-09-07T13:43:06;11.13;;;4.90;;
10667;SDS011;5382;42.136;24.796;2023-09-07T13:45:33;7.22;;;4.55;;
10667;SDS011;5382;42.136;24.796;2023-09-07T13:47:59;6.43;;;4.55;;
10667;SDS011;5382;42.136;24.796;2023-09-07T13:50:27;5.78;;;4.47;;
10667;SDS011;5382;42.136;24.796;2023-09-07T13:52:55;5.55;;;4.95;;
10667;SDS011;5382;42.136;24.796;2023-09-07T13:55:22;8.35;;;4.60;;
10667;SDS011;5382;42.136;24.796;2023-09-07T13:57:52;5.05;;;4.63;;
10667;SDS011;5382;42.136;24.796;2023-09-07T14:00:19;8.70;;;4.63;;
10667;SDS011;5382;42.136;24.796;2023-09-07T14:02:45;4.75;;;4.13;;
10667;SDS011;5382;42.136;24.796;2023-09-07T14:05:13;6.22;;;4.97;;
10667;SDS011;5382;42.136;24.796;2023-09-07T14:07:41;6.88;;;4.80;;
10667;SDS011;5382;42.136;24.796;2023-09-07T14:10:07;10.02;;;4.57;;
10667;SDS011;5382;42.136;24.796;2023-09-07T14:12:35;9.13;;;4.95;;
10667;SDS011;5382;42.136;24.796;2023-09-07T14:15:04;6.47;;;4.90;;
10667;SDS011;5382;42.136;24.796;2023-09-07T14:17:32;5.57;;;4.88;;
10667;SDS011;5382;42.136;24.796;2023-09-07T14:19:59;9.15;;;5.03;;
10667;SDS011;5382;42.136;24.796;2023-09-07T14:22:26;8.45;;;5.30;;
10667;SDS011;5382;42.136;24.796;2023-09-07T14:24:52;10.43;;;5.20;;
10667;SDS011;5382;42.136;24.796;2023-09-07T14:27:21;8.95;;;5.50;;
10667;SDS011;5382;42.136;24.796;2023-09-07T14:29:47;6.63;;;4.93;;
10667;SDS011;5382;42.136;24.796;2023-09-07T14:32:16;10.57;;;5.15;;
10667;SDS011;5382;42.136;24.796;2023-09-07T14:34:43;6.60;;;5.20;;
10667;SDS011;5382;42.136;24.796;2023-09-07T14:37:10;9.10;;;5.10;;
10667;SDS011;5382;42.136;24.796;2023-09-07T14:39:37;6.65;;;5.18;;
10667;SDS011;5382;42.136;24.796;2023-09-07T14:42:04;7.95;;;4.72;;
10667;SDS011;5382;42.136;24.796;2023-09-07T14:44:38;6.45;;;5.22;;
10667;SDS011;5382;42.136;24.796;2023-09-07T14:47:05;7.88;;;5.30;;
10667;SDS011;5382;42.136;24.796;2023-09-07T14:49:34;7.53;;;4.90;;
10667;SDS011;5382;42.136;24.796;2023-09-07T14:52:01;7.38;;;5.30;;
10667;SDS011;5382;42.136;24.796;2023-09-07T14:54:29;6.93;;;5.40;;
10667;SDS011;5382;42.136;24.796;2023-09-07T14:56:56;10.73;;;5.72;;
10667;SDS011;5382;42.136;24.796;2023-09-07T14:59:23;5.75;;;4.60;;
10667;SDS011;5382;42.136;24.796;2023-09-07T15:01:49;7.28;;;6.55;;
10667;SDS011;5382;42.136;24.796;2023-09-07T15:04:17;6.75;;;5.45;;
10667;SDS011;5382;42.136;24.796;2023-09-07T15:06:46;5.32;;;4.72;;
10667;SDS011;5382;42.136;24.796;2023-09-07T15:09:13;10.95;;;5.43;;
10667;SDS011;5382;42.136;24.796;2023-09-07T15:11:41;9.60;;;4.97;;
10667;SDS011;5382;42.136;24.796;2023-09-07T15:14:07;6.70;;;4.90;;
10667;SDS011;5382;42.136;24.796;2023-09-07T15:16:34;9.30;;;5.40;;
10667;SDS011;5382;42.136;24.796;2023-09-07T15:19:01;7.13;;;5.00;;
10667;SDS011;5382;42.136;24.796;2023-09-07T15:21:29;7.15;;;5.10;;
10667;SDS011;5382;42.136;24.796;2023-09-07T15:23:58;10.10;;;5.18;;
10667;SDS011;5382;42.136;24.796;2023-09-07T15:26:25;9.75;;;5.70;;
10667;SDS011;5382;42.136;24.796;2023-09-07T15:28:52;11.30;;;5.75;;
10667;SDS011;5382;42.136;24.796;2023-09-07T15:31:19;7.90;;;5.25;;
10667;SDS011;5382;42.136;24.796;2023-09-07T15:33:46;6.15;;;5.45;;
10667;SDS011;5382;42.136;24.796;2023-09-07T15:36:13;12.50;;;5.22;;
10667;SDS011;5382;42.136;24.796;2023-09-07T15:38:40;7.18;;;5.65;;
10667;SDS011;5382;42.136;24.796;2023-09-07T15:41:09;6.20;;;5.03;;
10667;SDS011;5382;42.136;24.796;2023-09-07T15:43:35;8.63;;;4.60;;
10667;SDS011;5382;42.136;24.796;2023-09-07T15:46:02;7.10;;;4.82;;
10667;SDS011;5382;42.136;24.796;2023-09-07T15:48:30;10.07;;;5.25;;
10667;SDS011;5382;42.136;24.796;2023-09-07T15:50:57;7.97;;;5.40;;
10667;SDS011;5382;42.136;24.796;2023-09-07T15:53:24;12.80;;;7.60;;
10667;SDS011;5382;42.136;24.796;2023-09-07T15:55:51;15.48;;;14.07;;
10667;SDS011;5382;42.136;24.796;2023-09-07T15:58:20;6.47;;;5.82;;
10667;SDS011;5382;42.136;24.796;2023-09-07T16:00:47;9.82;;;5.63;;
10667;SDS011;5382;42.136;24.796;2023-09-07T16:03:15;9.02;;;5.70;;